Time;durP1;ratioP1;P1;durP2;ratioP2;P2;SDS_P1;SDS_P2;PMS_P1;PMS_P2;Temp;Humidity;BMP_temperature;BMP_pressure;BME280_temperature;BME280_humidity;BME280_pressure;Samples;Min_cycle;Max_cycle;Signal;HPM_P1;HPM_P2
2021/08/02 00:02:54;;;;;;;2.24;1.70;;;;;;;21.84;70.01;100143.77;;;;-55
2021/08/02 00:05:54;;;;;;;1.81;1.62;;;;;;;21.84;69.97;100135.53;;;;-55
2021/08/02 00:08:54;;;;;;;1.97;1.77;;;;;;;21.83;70.00;100136.77;;;;-55
2021/08/02 00:11:54;;;;;;;1.92;1.71;;;;;;;21.83;70.00;100140.09;;;;-56
2021/08/02 00:14:55;;;;;;;3.47;1.73;;;;;;;21.83;70.04;100142.78;;;;-55
2021/08/02 00:17:54;;;;;;;2.20;1.60;;;;;;;21.83;69.99;100138.30;;;;-55
2021/08/02 00:20:54;;;;;;;1.99;1.79;;;;;;;21.82;70.06;100134.89;;;;-56
2021/08/02 00:23:54;;;;;;;2.13;1.66;;;;;;;21.82;69.98;100134.32;;;;-56
2021/08/02 00:26:54;;;;;;;2.05;1.55;;;;;;;21.81;70.04;100137.59;;;;-55
2021/08/02 00:29:54;;;;;;;1.70;1.55;;;;;;;21.82;70.01;100140.69;;;;-55
2021/08/02 00:32:54;;;;;;;2.46;1.51;;;;;;;21.81;70.02;100144.86;;;;-51
2021/08/02 00:35:54;;;;;;;1.82;1.70;;;;;;;21.80;70.04;100146.48;;;;-51
2021/08/02 00:38:54;;;;;;;1.62;1.52;;;;;;;21.80;70.01;100146.09;;;;-51
2021/08/02 00:41:55;;;;;;;1.83;1.71;;;;;;;21.80;70.03;100144.78;;;;-51
2021/08/02 00:45:54;;;;;;;1.82;1.68;;;;;;;21.80;70.04;100147.79;;;;-52
2021/08/02 00:48:54;;;;;;;1.61;1.51;;;;;;;21.79;70.02;100148.45;;;;-51
2021/08/02 00:51:54;;;;;;;1.97;1.58;;;;;;;21.79;70.02;100147.00;;;;-51
2021/08/02 00:54:53;;;;;;;2.06;1.84;;;;;;;21.79;70.03;100143.30;;;;-51
2021/08/02 00:57:54;;;;;;;2.03;1.75;;;;;;;21.78;69.95;100138.19;;;;-50
2021/08/02 01:00:54;;;;;;;1.73;1.60;;;;;;;21.77;69.99;100139.34;;;;-51
2021/08/02 01:03:54;;;;;;;1.81;1.67;;;;;;;21.77;70.04;100139.66;;;;-51
2021/08/02 01:06:54;;;;;;;1.70;1.60;;;;;;;21.78;70.06;100145.69;;;;-51
2021/08/02 01:09:54;;;;;;;2.21;1.60;;;;;;;21.77;70.04;100143.83;;;;-52
2021/08/02 01:12:53;;;;;;;2.10;1.57;;;;;;;21.76;70.06;100143.75;;;;-52
2021/08/02 01:15:54;;;;;;;1.61;1.51;;;;;;;21.76;70.01;100145.78;;;;-56
2021/08/02 01:18:54;;;;;;;1.85;1.71;;;;;;;21.76;70.06;100145.78;;;;-56
2021/08/02 01:21:54;;;;;;;1.87;1.69;;;;;;;21.77;70.04;100140.55;;;;-54
2021/08/02 01:24:54;;;;;;;1.86;1.59;;;;;;;21.76;70.05;100139.09;;;;-54
2021/08/02 01:27:54;;;;;;;1.77;1.61;;;;;;;21.75;69.97;100137.89;;;;-56
2021/08/02 01:32:54;;;;;;;2.20;1.70;;;;;;;21.75;70.02;100136.42;;;;-55
2021/08/02 01:35:54;;;;;;;2.01;1.71;;;;;;;21.75;70.04;100136.42;;;;-56
2021/08/02 01:38:54;;;;;;;2.02;1.60;;;;;;;21.75;70.02;100133.88;;;;-56
2021/08/02 01:41:54;;;;;;;1.64;1.54;;;;;;;21.74;70.02;100137.22;;;;-56
2021/08/02 01:44:54;;;;;;;1.73;1.61;;;;;;;21.73;70.07;100138.55;;;;-56
2021/08/02 01:47:54;;;;;;;1.60;1.50;;;;;;;21.73;70.02;100141.09;;;;-55
2021/08/02 01:50:54;;;;;;;1.85;1.59;;;;;;;21.73;70.03;100141.02;;;;-55
2021/08/02 01:53:54;;;;;;;1.85;1.71;;;;;;;21.73;70.05;100141.91;;;;-54
2021/08/02 01:56:54;;;;;;;1.71;1.60;;;;;;;21.73;70.10;100149.23;;;;-55
2021/08/02 01:59:54;;;;;;;1.61;1.50;;;;;;;21.73;70.12;100155.70;;;;-55
2021/08/02 02:02:54;;;;;;;1.60;1.50;;;;;;;21.73;70.13;100159.67;;;;-54
2021/08/02 02:05:54;;;;;;;1.60;1.50;;;;;;;21.72;70.10;100156.58;;;;-52
2021/08/02 02:08:54;;;;;;;1.77;1.63;;;;;;;21.72;70.08;100163.02;;;;-51
2021/08/02 02:11:54;;;;;;;1.66;1.50;;;;;;;21.72;70.08;100172.48;;;;-52
2021/08/02 02:14:54;;;;;;;1.75;1.50;;;;;;;21.71;70.13;100170.22;;;;-52
2021/08/02 02:17:54;;;;;;;1.76;1.49;;;;;;;21.71;70.12;100168.84;;;;-52
2021/08/02 02:20:54;;;;;;;2.49;1.69;;;;;;;21.70;70.11;100163.59;;;;-51
2021/08/02 02:23:54;;;;;;;1.86;1.51;;;;;;;21.71;70.09;100169.48;;;;-51
2021/08/02 02:26:54;;;;;;;1.51;1.41;;;;;;;21.70;70.08;100172.89;;;;-50
2021/08/02 02:29:53;;;;;;;1.70;1.60;;;;;;;21.71;70.10;100171.53;;;;-51
2021/08/02 02:32:54;;;;;;;1.67;1.57;;;;;;;21.70;70.12;100174.69;;;;-52
2021/08/02 02:35:54;;;;;;;1.76;1.66;;;;;;;21.70;70.13;100180.40;;;;-51
2021/08/02 02:38:53;;;;;;;1.74;1.64;;;;;;;21.70;70.10;100184.08;;;;-50
2021/08/02 02:41:54;;;;;;;1.67;1.52;;;;;;;21.70;70.11;100184.48;;;;-51
2021/08/02 02:44:54;;;;;;;1.63;1.51;;;;;;;21.69;70.12;100185.80;;;;-51
2021/08/02 02:47:54;;;;;;;1.73;1.63;;;;;;;21.69;70.13;100182.63;;;;-50
2021/08/02 02:50:54;;;;;;;1.59;1.49;;;;;;;21.69;70.11;100185.97;;;;-51
2021/08/02 02:53:54;;;;;;;1.79;1.60;;;;;;;21.69;70.09;100188.27;;;;-50
2021/08/02 02:56:53;;;;;;;1.87;1.61;;;;;;;21.68;70.10;100190.69;;;;-52
2021/08/02 02:59:54;;;;;;;1.62;1.52;;;;;;;21.68;70.12;100187.02;;;;-51
2021/08/02 03:02:54;;;;;;;1.89;1.73;;;;;;;21.68;70.10;100187.20;;;;-50
2021/08/02 03:05:54;;;;;;;1.79;1.61;;;;;;;21.68;70.06;100187.02;;;;-52
2021/08/02 03:08:54;;;;;;;1.51;1.41;;;;;;;21.68;70.06;100190.53;;;;-51
2021/08/02 03:11:54;;;;;;;1.60;1.50;;;;;;;21.67;70.12;100191.45;;;;-51
2021/08/02 03:14:55;;;;;;;1.69;1.59;;;;;;;21.67;70.16;100193.81;;;;-52
2021/08/02 03:17:54;;;;;;;1.57;1.47;;;;;;;21.67;70.10;100193.41;;;;-50
2021/08/02 03:20:54;;;;;;;1.52;1.42;;;;;;;21.67;70.06;100193.01;;;;-50
2021/08/02 03:23:54;;;;;;;1.60;1.50;;;;;;;21.67;70.08;100194.89;;;;-50
2021/08/02 03:26:54;;;;;;;1.53;1.43;;;;;;;21.67;70.07;100195.70;;;;-51
2021/08/02 03:29:54;;;;;;;1.85;1.46;;;;;;;21.66;70.10;100195.36;;;;-51
2021/08/02 03:32:54;;;;;;;1.61;1.49;;;;;;;21.66;70.14;100194.87;;;;-52
2021/08/02 03:35:53;;;;;;;1.65;1.50;;;;;;;21.65;70.13;100197.25;;;;-51
2021/08/02 03:38:54;;;;;;;1.70;1.60;;;;;;;21.66;70.09;100198.30;;;;-50
2021/08/02 03:41:54;;;;;;;1.66;1.56;;;;;;;21.66;70.13;100200.01;;;;-51
2021/08/02 03:44:54;;;;;;;1.56;1.46;;;;;;;21.65;70.12;100202.39;;;;-58
2021/08/02 03:47:54;;;;;;;1.65;1.55;;;;;;;21.65;70.12;100204.42;;;;-57
2021/08/02 03:50:54;;;;;;;1.54;1.44;;;;;;;21.65;70.17;100205.08;;;;-57
2021/08/02 03:53:53;;;;;;;2.20;1.48;;;;;;;21.66;70.11;100207.77;;;;-57
2021/08/02 03:56:54;;;;;;;1.63;1.53;;;;;;;21.65;70.13;100209.17;;;;-58
2021/08/02 03:59:53;;;;;;;1.55;1.45;;;;;;;21.64;70.11;100210.16;;;;-56
2021/08/02 04:02:53;;;;;;;1.53;1.43;;;;;;;21.64;70.13;100209.73;;;;-55
2021/08/02 04:05:54;;;;;;;1.55;1.45;;;;;;;21.64;70.11;100211.46;;;;-54
2021/08/02 04:08:53;;;;;;;1.53;1.43;;;;;;;21.64;70.11;100213.72;;;;-56
2021/08/02 04:11:54;;;;;;;1.60;1.50;;;;;;;21.64;70.09;100213.31;;;;-55
2021/08/02 04:14:54;;;;;;;1.57;1.47;;;;;;;21.64;70.12;100216.83;;;;-55
2021/08/02 04:17:54;;;;;;;1.67;1.56;;;;;;;21.63;70.15;100222.38;;;;-55
2021/08/02 04:20:55;;;;;;;1.45;1.35;;;;;;;21.63;70.15;100226.45;;;;-56
2021/08/02 04:23:55;;;;;;;1.47;1.37;;;;;;;21.63;70.14;100229.55;;;;-55
2021/08/02 04:26:54;;;;;;;1.55;1.45;;;;;;;21.63;70.18;100232.92;;;;-55
2021/08/02 04:29:53;;;;;;;1.65;1.40;;;;;;;21.62;70.19;100231.38;;;;-56
2021/08/02 04:32:54;;;;;;;1.61;1.51;;;;;;;21.63;70.17;100232.99;;;;-56
2021/08/02 04:35:54;;;;;;;1.50;1.40;;;;;;;21.63;70.17;100233.39;;;;-55
2021/08/02 04:38:54;;;;;;;1.42;1.32;;;;;;;21.62;70.21;100237.06;;;;-55
2021/08/02 04:41:54;;;;;;;1.60;1.50;;;;;;;21.63;70.18;100237.15;;;;-55
2021/08/02 04:44:54;;;;;;;1.61;1.51;;;;;;;21.63;70.19;100236.99;;;;-55
2021/08/02 04:47:54;;;;;;;1.50;1.40;;;;;;;21.62;70.16;100237.55;;;;-56
2021/08/02 04:50:54;;;;;;;1.46;1.36;;;;;;;21.62;70.16;100240.02;;;;-55
2021/08/02 04:53:54;;;;;;;1.50;1.40;;;;;;;21.62;70.20;100241.16;;;;-55
2021/08/02 04:56:54;;;;;;;1.55;1.45;;;;;;;21.62;70.19;100241.47;;;;-55
2021/08/02 04:59:54;;;;;;;1.50;1.40;;;;;;;21.61;70.20;100240.83;;;;-54
2021/08/02 05:02:53;;;;;;;1.50;1.40;;;;;;;21.61;70.14;100244.41;;;;-56
2021/08/02 05:05:53;;;;;;;1.52;1.42;;;;;;;21.61;70.16;100245.48;;;;-56
2021/08/02 05:08:54;;;;;;;1.42;1.32;;;;;;;21.61;70.15;100238.31;;;;-55
2021/08/02 05:11:54;;;;;;;1.55;1.45;;;;;;;21.61;70.15;100241.00;;;;-55
2021/08/02 05:14:53;;;;;;;1.50;1.40;;;;;;;21.61;70.17;100245.48;;;;-56
2021/08/02 05:17:54;;;;;;;1.60;1.50;;;;;;;21.60;70.20;100246.53;;;;-55
2021/08/02 05:20:54;;;;;;;1.50;1.40;;;;;;;21.60;70.17;100248.84;;;;-56
2021/08/02 05:23:54;;;;;;;1.57;1.47;;;;;;;21.59;70.14;100250.70;;;;-55
2021/08/02 05:26:54;;;;;;;1.50;1.40;;;;;;;21.59;70.17;100253.80;;;;-56
2021/08/02 05:29:53;;;;;;;1.51;1.41;;;;;;;21.59;70.17;100254.61;;;;-55
2021/08/02 05:32:53;;;;;;;1.60;1.49;;;;;;;21.59;70.17;100255.19;;;;-56
2021/08/02 05:35:54;;;;;;;1.49;1.39;;;;;;;21.59;70.21;100248.50;;;;-55
2021/08/02 05:38:54;;;;;;;1.61;1.51;;;;;;;21.59;70.17;100251.11;;;;-56
2021/08/02 05:41:53;;;;;;;1.61;1.51;;;;;;;21.60;70.22;100252.08;;;;-56
2021/08/02 05:44:54;;;;;;;1.83;1.41;;;;;;;21.60;70.18;100250.28;;;;-56
2021/08/02 05:47:53;;;;;;;1.50;1.40;;;;;;;21.59;70.17;100251.20;;;;-56
2021/08/02 05:50:53;;;;;;;1.51;1.41;;;;;;;21.59;70.21;100255.44;;;;-55
2021/08/02 05:53:56;;;;;;;1.59;1.49;;;;;;;21.59;70.18;100258.78;;;;-56
2021/08/02 05:56:53;;;;;;;1.49;1.39;;;;;;;21.59;70.23;100261.31;;;;-56
2021/08/02 05:59:54;;;;;;;1.45;1.35;;;;;;;21.59;70.21;100268.90;;;;-55
2021/08/02 06:02:54;;;;;;;1.64;1.54;;;;;;;21.58;70.25;100270.70;;;;-56
2021/08/02 06:05:54;;;;;;;1.50;1.40;;;;;;;21.58;70.22;100272.01;;;;-51
2021/08/02 06:08:53;;;;;;;1.50;1.40;;;;;;;21.58;70.25;100275.33;;;;-51
2021/08/02 06:11:54;;;;;;;1.50;1.40;;;;;;;21.58;70.25;100280.08;;;;-51
2021/08/02 06:14:54;;;;;;;1.40;1.30;;;;;;;21.58;70.26;100283.91;;;;-50
2021/08/02 06:17:53;;;;;;;1.41;1.31;;;;;;;21.58;70.20;100281.69;;;;-51
2021/08/02 06:20:54;;;;;;;1.42;1.32;;;;;;;21.57;70.25;100284.14;;;;-58
2021/08/02 06:23:54;;;;;;;1.49;1.39;;;;;;;21.58;70.21;100281.69;;;;-57
2021/08/02 06:26:53;;;;;;;1.50;1.40;;;;;;;21.57;70.25;100283.98;;;;-58
2021/08/02 06:29:54;;;;;;;1.40;1.30;;;;;;;21.58;70.25;100284.55;;;;-58
2021/08/02 06:32:53;;;;;;;1.48;1.38;;;;;;;21.58;70.21;100285.36;;;;-58
2021/08/02 06:35:53;;;;;;;1.57;1.47;;;;;;;21.57;70.25;100290.42;;;;-51
2021/08/02 06:38:53;;;;;;;1.50;1.40;;;;;;;21.57;70.25;100295.24;;;;-51
2021/08/02 06:41:53;;;;;;;1.51;1.41;;;;;;;21.57;70.25;100296.06;;;;-51
2021/08/02 06:44:54;;;;;;;1.42;1.32;;;;;;;21.56;70.25;100296.39;;;;-50
2021/08/02 06:47:56;;;;;;;1.60;1.50;;;;;;;21.56;70.25;100293.70;;;;-52
2021/08/02 06:50:53;;;;;;;1.50;1.40;;;;;;;21.57;70.23;100293.94;;;;-51
2021/08/02 06:53:56;;;;;;;1.40;1.30;;;;;;;21.56;70.22;100292.16;;;;-51
2021/08/02 06:56:54;;;;;;;1.57;1.47;;;;;;;21.56;70.21;100288.56;;;;-51
2021/08/02 06:59:53;;;;;;;1.50;1.40;;;;;;;21.57;70.27;100292.55;;;;-51
2021/08/02 07:02:57;;;;;;;1.43;1.33;;;;;;;21.56;70.20;100293.44;;;;-52
2021/08/02 07:05:54;;;;;;;1.41;1.31;;;;;;;21.56;70.18;100298.03;;;;-51
2021/08/02 07:08:56;;;;;;;1.49;1.39;;;;;;;21.56;70.19;100300.86;;;;-51
2021/08/02 07:11:53;;;;;;;1.50;1.40;;;;;;;21.55;70.22;100298.99;;;;-51
2021/08/02 07:14:54;;;;;;;1.47;1.37;;;;;;;21.55;70.17;100294.59;;;;-51
2021/08/02 07:17:53;;;;;;;1.46;1.36;;;;;;;21.56;70.15;100294.99;;;;-52
2021/08/02 07:20:54;;;;;;;1.47;1.37;;;;;;;21.55;70.20;100292.14;;;;-52
2021/08/02 07:23:54;;;;;;;1.56;1.46;;;;;;;21.56;70.20;100295.23;;;;-51
2021/08/02 07:26:53;;;;;;;1.50;1.40;;;;;;;21.56;70.21;100292.62;;;;-51
2021/08/02 07:29:54;;;;;;;1.51;1.41;;;;;;;21.55;70.18;100291.81;;;;-51
2021/08/02 07:32:54;;;;;;;1.40;1.30;;;;;;;21.55;70.20;100290.19;;;;-52
2021/08/02 07:35:54;;;;;;;1.55;1.45;;;;;;;21.56;70.13;100292.05;;;;-51
2021/08/02 07:38:54;;;;;;;1.39;1.29;;;;;;;21.55;70.18;100295.09;;;;-52
2021/08/02 07:41:54;;;;;;;1.40;1.30;;;;;;;21.54;70.19;100297.55;;;;-50
2021/08/02 07:44:54;;;;;;;9.15;1.71;;;;;;;21.54;70.35;100300.97;;;;-53
2021/08/02 07:47:53;;;;;;;4.52;1.79;;;;;;;21.55;69.31;100300.56;;;;-50
2021/08/02 07:50:54;;;;;;;2.94;2.03;;;;;;;21.55;68.90;100300.14;;;;-58
2021/08/02 07:53:55;;;;;;;9.91;2.20;;;;;;;21.53;68.95;100300.48;;;;-51
2021/08/02 07:56:54;;;;;;;3.91;2.33;;;;;;;21.53;67.70;100298.34;;;;-55
2021/08/02 07:59:54;;;;;;;3.75;2.27;;;;;;;21.49;67.89;100300.41;;;;-57
2021/08/02 08:02:54;;;;;;;2.25;2.01;;;;;;;21.50;68.20;100295.59;;;;-50
2021/08/02 08:05:54;;;;;;;3.84;2.13;;;;;;;21.51;68.21;100295.67;;;;-47
2021/08/02 08:08:54;;;;;;;3.61;2.38;;;;;;;21.52;68.26;100297.72;;;;-46
2021/08/02 08:11:53;;;;;;;3.57;2.37;;;;;;;21.51;67.53;100296.83;;;;-50
2021/08/02 08:14:54;;;;;;;4.33;2.23;;;;;;;21.51;67.65;100295.84;;;;-50
2021/08/02 08:17:54;;;;;;;3.17;2.39;;;;;;;21.49;67.76;100296.73;;;;-48
2021/08/02 08:20:53;;;;;;;3.97;2.37;;;;;;;21.52;67.77;100298.70;;;;-50
2021/08/02 08:23:55;;;;;;;3.78;2.17;;;;;;;21.50;67.01;100301.95;;;;-49
2021/08/02 08:26:54;;;;;;;3.13;2.24;;;;;;;21.47;67.40;100298.45;;;;-50
2021/08/02 08:29:53;;;;;;;3.63;2.43;;;;;;;21.48;67.69;100298.86;;;;-50
2021/08/02 08:32:54;;;;;;;5.10;2.53;;;;;;;21.50;67.53;100300.91;;;;-50
2021/08/02 08:35:53;;;;;;;6.14;2.41;;;;;;;21.52;67.77;100305.94;;;;-51
2021/08/02 08:38:53;;;;;;;3.79;2.53;;;;;;;21.53;67.82;100305.77;;;;-50
2021/08/02 08:41:54;;;;;;;3.36;2.45;;;;;;;21.54;67.93;100306.09;;;;-51
2021/08/02 08:44:53;;;;;;;5.55;2.28;;;;;;;21.53;67.97;100309.77;;;;-51
2021/08/02 08:47:56;;;;;;;6.09;2.49;;;;;;;21.55;67.97;100309.20;;;;-49
2021/08/02 08:50:54;;;;;;;5.47;2.53;;;;;;;21.57;68.10;100312.86;;;;-47
2021/08/02 08:53:53;;;;;;;8.26;2.51;;;;;;;21.57;68.16;100312.68;;;;-52
2021/08/02 08:56:53;;;;;;;6.06;2.42;;;;;;;21.58;68.03;100312.45;;;;-55
2021/08/02 08:59:54;;;;;;;4.79;2.48;;;;;;;21.58;68.19;100307.89;;;;-54
2021/08/02 09:02:53;;;;;;;4.75;2.35;;;;;;;21.58;68.22;100308.62;;;;-54
2021/08/02 09:05:53;;;;;;;8.48;2.48;;;;;;;21.58;68.11;100306.58;;;;-55
2021/08/02 09:08:54;;;;;;;6.13;2.20;;;;;;;21.59;68.22;100303.79;;;;-54
2021/08/02 09:11:53;;;;;;;5.54;2.50;;;;;;;21.59;68.08;100305.02;;;;-56
2021/08/02 09:14:53;;;;;;;4.41;2.29;;;;;;;21.59;68.22;100303.31;;;;-54
2021/08/02 09:17:54;;;;;;;4.76;2.22;;;;;;;21.60;68.16;100304.59;;;;-60
2021/08/02 09:20:53;;;;;;;3.31;2.33;;;;;;;21.60;68.13;100310.65;;;;-59
2021/08/02 09:23:54;;;;;;;3.60;2.28;;;;;;;21.62;68.32;100307.45;;;;-60
2021/08/02 09:26:54;;;;;;;5.44;2.59;;;;;;;21.63;68.28;100318.61;;;;-58
2021/08/02 09:29:53;;;;;;;6.33;2.48;;;;;;;21.64;68.31;100318.44;;;;-51
2021/08/02 09:32:54;;;;;;;4.71;2.41;;;;;;;21.65;68.31;100315.19;;;;-59
2021/08/02 09:35:53;;;;;;;4.96;2.36;;;;;;;21.65;68.20;100310.86;;;;-51
2021/08/02 09:38:56;;;;;;;2.69;2.07;;;;;;;21.67;68.31;100309.55;;;;-57
2021/08/02 09:41:54;;;;;;;5.23;2.21;;;;;;;21.68;68.33;100306.59;;;;-60
2021/08/02 09:44:53;;;;;;;3.53;2.25;;;;;;;21.69;68.42;100305.62;;;;-56
2021/08/02 09:47:53;;;;;;;2.80;2.21;;;;;;;21.70;68.36;100301.61;;;;-54
2021/08/02 09:50:54;;;;;;;3.11;2.27;;;;;;;21.71;68.32;100300.47;;;;-53
2021/08/02 09:53:53;;;;;;;3.05;2.20;;;;;;;21.72;68.39;100297.93;;;;-53
2021/08/02 09:56:54;;;;;;;3.96;2.29;;;;;;;21.72;68.46;100295.31;;;;-61
2021/08/02 09:59:54;;;;;;;2.37;2.17;;;;;;;21.73;68.33;100298.09;;;;-61
2021/08/02 10:02:53;;;;;;;2.97;2.39;;;;;;;21.74;68.35;100291.22;;;;-50
2021/08/02 10:05:53;;;;;;;5.10;2.30;;;;;;;21.75;68.38;100288.52;;;;-54
2021/08/02 10:08:54;;;;;;;3.68;2.06;;;;;;;21.75;68.26;100285.52;;;;-58
2021/08/02 10:11:55;;;;;;;3.15;2.23;;;;;;;21.76;68.31;100281.52;;;;-53
2021/08/02 10:14:53;;;;;;;3.35;2.23;;;;;;;21.77;68.21;100281.01;;;;-61
2021/08/02 10:17:54;;;;;;;2.82;2.15;;;;;;;21.77;68.46;100280.95;;;;-56
2021/08/02 10:20:53;;;;;;;5.83;2.54;;;;;;;21.78;68.40;100277.67;;;;-55
2021/08/02 10:23:53;;;;;;;2.65;2.17;;;;;;;21.77;68.23;100275.97;;;;-62
2021/08/02 10:26:56;;;;;;;3.71;2.30;;;;;;;21.79;68.28;100275.06;;;;-60
2021/08/02 10:37:53;;;;;;;6.28;2.49;;;;;;;21.83;67.99;100260.25;;;;-50
2021/08/02 10:40:53;;;;;;;6.69;2.39;;;;;;;21.83;67.80;100256.03;;;;-52
2021/08/02 10:43:53;;;;;;;5.01;2.44;;;;;;;21.84;67.79;100251.44;;;;-51
2021/08/02 10:46:54;;;;;;;12.88;2.74;;;;;;;21.86;67.89;100253.55;;;;-50
2021/08/02 10:49:53;;;;;;;5.14;2.38;;;;;;;21.84;67.98;100251.44;;;;-50
2021/08/02 10:52:53;;;;;;;5.36;2.32;;;;;;;21.84;68.03;100252.74;;;;-50
2021/08/02 10:55:54;;;;;;;8.17;2.21;;;;;;;21.85;68.07;100252.00;;;;-50
2021/08/02 10:58:56;;;;;;;10.75;2.51;;;;;;;21.85;68.14;100246.45;;;;-50
2021/08/02 11:01:54;;;;;;;3.56;2.20;;;;;;;21.85;68.15;100244.58;;;;-52
2021/08/02 11:04:54;;;;;;;3.85;2.39;;;;;;;21.83;68.23;100242.98;;;;-51
2021/08/02 11:07:53;;;;;;;2.78;2.19;;;;;;;21.85;68.18;100241.07;;;;-51
2021/08/02 11:10:53;;;;;;;5.36;2.35;;;;;;;21.84;68.23;100236.11;;;;-51
2021/08/02 11:13:55;;;;;;;5.92;2.20;;;;;;;21.83;68.28;100227.08;;;;-51
2021/08/02 11:16:53;;;;;;;4.53;2.26;;;;;;;21.84;68.26;100228.44;;;;-57
2021/08/02 11:19:53;;;;;;;3.48;2.10;;;;;;;21.83;68.32;100228.38;;;;-56
2021/08/02 11:22:54;;;;;;;2.61;2.28;;;;;;;21.83;68.35;100232.13;;;;-57
2021/08/02 11:25:53;;;;;;;4.10;2.27;;;;;;;21.83;68.36;100234.47;;;;-52
2021/08/02 11:28:55;;;;;;;3.73;2.09;;;;;;;21.83;68.38;100230.23;;;;-51
2021/08/02 11:31:54;;;;;;;4.59;2.19;;;;;;;21.83;68.42;100227.05;;;;-50
2021/08/02 11:34:54;;;;;;;3.85;2.24;;;;;;;21.83;68.41;100227.30;;;;-50
2021/08/02 11:37:54;;;;;;;3.59;2.23;;;;;;;21.82;68.45;100219.96;;;;-50
2021/08/02 11:40:54;;;;;;;2.56;2.02;;;;;;;21.83;68.44;100215.80;;;;-52
2021/08/02 11:43:53;;;;;;;4.11;2.24;;;;;;;21.83;68.47;100219.87;;;;-51
2021/08/02 11:46:53;;;;;;;2.83;2.20;;;;;;;21.82;68.52;100217.03;;;;-51
2021/08/02 11:49:54;;;;;;;3.51;2.13;;;;;;;21.83;68.51;100214.16;;;;-52
2021/08/02 11:52:53;;;;;;;2.30;2.10;;;;;;;21.83;68.49;100218.65;;;;-51
2021/08/02 11:55:53;;;;;;;2.93;2.05;;;;;;;21.82;68.47;100212.38;;;;-56
2021/08/02 11:58:54;;;;;;;2.40;2.03;;;;;;;21.82;68.55;100211.33;;;;-57
2021/08/02 12:01:53;;;;;;;3.41;1.99;;;;;;;21.82;68.53;100213.28;;;;-57
2021/08/02 12:04:53;;;;;;;2.41;2.00;;;;;;;21.82;68.52;100220.05;;;;-56
2021/08/02 12:07:53;;;;;;;2.74;2.21;;;;;;;21.82;68.55;100217.29;;;;-57
2021/08/02 12:10:53;;;;;;;3.49;2.06;;;;;;;21.82;68.60;100207.83;;;;-57
2021/08/02 12:13:54;;;;;;;2.92;2.00;;;;;;;21.81;68.58;100213.30;;;;-57
2021/08/02 12:16:54;;;;;;;3.45;2.01;;;;;;;21.82;68.60;100206.52;;;;-56
2021/08/02 12:19:53;;;;;;;2.20;2.00;;;;;;;21.82;68.62;100210.92;;;;-57
2021/08/02 12:22:53;;;;;;;2.61;2.01;;;;;;;21.81;68.62;100214.44;;;;-60
2021/08/02 12:25:54;;;;;;;2.17;1.97;;;;;;;21.83;68.71;100219.73;;;;-59
2021/08/02 12:28:53;;;;;;;2.29;2.00;;;;;;;21.84;68.73;100219.39;;;;-60
2021/08/02 12:31:53;;;;;;;4.31;1.96;;;;;;;21.84;68.79;100226.64;;;;-55
2021/08/02 12:34:54;;;;;;;2.28;2.03;;;;;;;21.86;68.76;100221.41;;;;-56
2021/08/02 12:37:54;;;;;;;5.27;1.94;;;;;;;21.86;68.53;100224.59;;;;-55
2021/08/02 12:40:53;;;;;;;4.85;2.04;;;;;;;21.87;68.80;100217.31;;;;-54
2021/08/02 12:43:55;;;;;;;2.75;1.94;;;;;;;21.86;68.71;100211.45;;;;-54
2021/08/02 12:46:53;;;;;;;2.37;1.93;;;;;;;21.86;68.73;100204.27;;;;-55
2021/08/02 12:49:57;;;;;;;3.57;2.11;;;;;;;21.87;68.76;100204.19;;;;-55
2021/08/02 12:52:53;;;;;;;3.40;2.09;;;;;;;21.87;68.73;100208.17;;;;-57
2021/08/02 12:55:53;;;;;;;3.60;1.90;;;;;;;21.87;68.63;100203.53;;;;-56
2021/08/02 12:58:53;;;;;;;2.68;2.25;;;;;;;21.87;68.61;100215.13;;;;-57
2021/08/02 13:01:53;;;;;;;5.07;2.21;;;;;;;21.87;68.65;100217.15;;;;-56
2021/08/02 13:04:53;;;;;;;6.85;1.99;;;;;;;21.87;68.61;100214.88;;;;-57
2021/08/02 13:07:54;;;;;;;2.21;1.97;;;;;;;21.87;68.63;100213.99;;;;-54
2021/08/02 13:10:53;;;;;;;4.37;2.08;;;;;;;21.88;68.72;100214.38;;;;-56
2021/08/02 13:13:53;;;;;;;4.45;2.08;;;;;;;21.89;68.69;100217.95;;;;-60
2021/08/02 13:16:53;;;;;;;3.53;2.01;;;;;;;21.90;68.78;100222.84;;;;-58
2021/08/02 13:19:53;;;;;;;2.49;1.90;;;;;;;21.91;68.82;100222.58;;;;-54
2021/08/02 13:22:57;;;;;;;5.06;2.06;;;;;;;21.91;68.72;100217.61;;;;-57
2021/08/02 13:28:53;;;;;;;3.17;2.11;;;;;;;21.92;68.80;100222.69;;;;-57
2021/08/02 13:31:53;;;;;;;2.57;2.01;;;;;;;21.93;68.85;100220.55;;;;-53
2021/08/02 13:34:53;;;;;;;4.79;2.05;;;;;;;21.92;68.89;100213.61;;;;-57
2021/08/02 13:37:53;;;;;;;7.64;2.06;;;;;;;21.96;68.90;100217.02;;;;-57
2021/08/02 13:40:53;;;;;;;7.92;2.03;;;;;;;21.95;68.99;100217.48;;;;-54
2021/08/02 13:43:53;;;;;;;4.85;2.05;;;;;;;21.97;68.99;100214.05;;;;-57
2021/08/02 13:46:53;;;;;;;3.56;2.09;;;;;;;21.98;69.04;100214.95;;;;-59
2021/08/02 13:49:53;;;;;;;6.31;2.00;;;;;;;21.99;69.03;100215.59;;;;-49
2021/08/02 13:52:53;;;;;;;6.15;2.11;;;;;;;22.00;69.07;100233.30;;;;-52
2021/08/02 13:55:54;;;;;;;4.32;2.13;;;;;;;22.01;68.95;100230.18;;;;-53
2021/08/02 13:58:53;;;;;;;4.87;1.99;;;;;;;22.02;68.87;100238.34;;;;-50
2021/08/02 14:01:53;;;;;;;5.81;2.13;;;;;;;22.02;68.93;100231.31;;;;-54
2021/08/02 14:04:53;;;;;;;3.24;2.05;;;;;;;22.03;68.83;100225.52;;;;-51
2021/08/02 14:07:53;;;;;;;4.22;2.28;;;;;;;22.04;68.91;100227.48;;;;-57
2021/08/02 14:10:53;;;;;;;3.32;1.97;;;;;;;22.04;68.91;100224.94;;;;-51
2021/08/02 14:13:53;;;;;;;3.75;2.03;;;;;;;22.05;68.88;100233.41;;;;-61
2021/08/02 14:16:54;;;;;;;4.29;2.17;;;;;;;22.05;68.92;100229.73;;;;-51
2021/08/02 14:19:55;;;;;;;4.50;1.99;;;;;;;22.05;68.88;100229.01;;;;-52
2021/08/02 14:22:53;;;;;;;4.05;2.12;;;;;;;22.06;68.87;100235.55;;;;-55
2021/08/02 14:25:53;;;;;;;3.54;1.94;;;;;;;22.06;68.94;100240.20;;;;-53
2021/08/02 14:28:53;;;;;;;4.29;2.00;;;;;;;22.06;68.86;100248.52;;;;-52
2021/08/02 14:31:53;;;;;;;6.43;2.14;;;;;;;22.07;68.87;100256.58;;;;-52
2021/08/02 14:34:54;;;;;;;3.47;1.90;;;;;;;22.07;68.87;100256.98;;;;-57
2021/08/02 14:37:53;;;;;;;4.50;2.07;;;;;;;22.08;68.92;100254.44;;;;-52
2021/08/02 14:40:54;;;;;;;3.07;1.92;;;;;;;22.08;68.95;100260.09;;;;-52
2021/08/02 14:43:53;;;;;;;5.19;1.97;;;;;;;22.08;69.00;100254.13;;;;-52
2021/08/02 14:46:53;;;;;;;6.75;2.29;;;;;;;22.10;68.89;100269.77;;;;-56
2021/08/02 14:49:53;;;;;;;8.02;2.21;;;;;;;22.10;69.15;100259.67;;;;-66
2021/08/02 14:52:53;;;;;;;9.57;2.25;;;;;;;22.13;68.95;100267.89;;;;-55
2021/08/02 14:55:53;;;;;;;6.19;2.21;;;;;;;22.12;69.21;100269.84;;;;-54
2021/08/02 14:58:53;;;;;;;10.82;2.35;;;;;;;22.10;69.20;100269.05;;;;-55
2021/08/02 15:01:53;;;;;;;6.17;2.13;;;;;;;22.12;69.21;100271.06;;;;-52
2021/08/02 15:04:54;;;;;;;11.66;2.27;;;;;;;22.12;69.20;100282.89;;;;-59
2021/08/02 15:07:53;;;;;;;7.87;1.97;;;;;;;22.14;69.24;100295.04;;;;-52
2021/08/02 15:10:54;;;;;;;4.47;1.98;;;;;;;22.14;69.29;100307.69;;;;-59
2021/08/02 15:13:53;;;;;;;6.64;2.13;;;;;;;22.16;69.28;100326.78;;;;-57
2021/08/02 15:16:53;;;;;;;6.84;2.25;;;;;;;22.15;69.29;100318.22;;;;-60
2021/08/02 15:19:53;;;;;;;6.31;2.11;;;;;;;22.16;69.32;100314.20;;;;-57
2021/08/02 15:22:53;;;;;;;4.41;2.19;;;;;;;22.15;69.31;100304.02;;;;-58
2021/08/02 15:25:53;;;;;;;2.70;1.99;;;;;;;22.17;69.29;100301.81;;;;-61
2021/08/02 15:28:53;;;;;;;3.46;1.91;;;;;;;22.17;69.27;100305.81;;;;-57
2021/08/02 15:31:53;;;;;;;6.55;1.98;;;;;;;22.18;69.27;100300.56;;;;-52
2021/08/02 15:34:53;;;;;;;4.13;1.99;;;;;;;22.18;69.27;100291.17;;;;-53
2021/08/02 15:37:53;;;;;;;5.59;2.12;;;;;;;22.18;69.27;100280.23;;;;-56
2021/08/02 15:40:53;;;;;;;3.87;1.95;;;;;;;22.18;69.32;100272.39;;;;-56
2021/08/02 15:43:53;;;;;;;3.26;1.91;;;;;;;22.18;69.28;100265.97;;;;-52
2021/08/02 15:46:53;;;;;;;5.62;2.09;;;;;;;22.19;69.28;100250.53;;;;-52
2021/08/02 15:49:53;;;;;;;5.63;2.05;;;;;;;22.18;69.32;100249.87;;;;-53
2021/08/02 15:52:53;;;;;;;12.45;2.17;;;;;;;22.19;69.35;100257.22;;;;-59
2021/08/02 15:55:53;;;;;;;7.05;2.01;;;;;;;22.19;69.32;100265.88;;;;-58
2021/08/02 15:58:53;;;;;;;4.68;1.96;;;;;;;22.20;69.40;100264.37;;;;-52
2021/08/02 16:01:54;;;;;;;4.90;1.93;;;;;;;22.20;69.34;100255.51;;;;-53
2021/08/02 16:04:53;;;;;;;3.23;1.95;;;;;;;22.21;69.41;100254.28;;;;-49
2021/08/02 16:07:53;;;;;;;2.97;1.82;;;;;;;22.21;69.42;100253.45;;;;-51
2021/08/02 16:10:53;;;;;;;3.34;1.90;;;;;;;22.22;69.35;100251.55;;;;-49
2021/08/02 16:13:53;;;;;;;4.02;1.89;;;;;;;22.23;69.43;100247.98;;;;-51
2021/08/02 16:16:53;;;;;;;7.21;2.31;;;;;;;22.22;69.42;100250.09;;;;-59
2021/08/02 16:19:53;;;;;;;3.95;1.85;;;;;;;22.22;69.29;100249.11;;;;-51
2021/08/02 16:22:53;;;;;;;2.39;1.77;;;;;;;22.23;69.39;100249.03;;;;-51
2021/08/02 16:25:53;;;;;;;4.10;1.93;;;;;;;22.23;69.38;100251.17;;;;-60
2021/08/02 16:28:53;;;;;;;4.69;1.88;;;;;;;22.23;69.35;100247.91;;;;-53
2021/08/02 16:31:53;;;;;;;4.03;1.80;;;;;;;22.24;69.32;100246.52;;;;-54
2021/08/02 16:34:53;;;;;;;6.86;1.83;;;;;;;22.25;69.44;100251.42;;;;-50
2021/08/02 16:37:53;;;;;;;3.26;1.90;;;;;;;22.25;69.42;100250.36;;;;-49
2021/08/02 16:40:53;;;;;;;2.37;1.84;;;;;;;22.25;69.43;100256.64;;;;-52
2021/08/02 16:43:56;;;;;;;3.63;1.70;;;;;;;22.25;69.48;100256.16;;;;-53
2021/08/02 16:46:53;;;;;;;4.24;1.92;;;;;;;22.26;69.52;100260.38;;;;-54
2021/08/02 16:49:53;;;;;;;2.55;1.95;;;;;;;22.26;69.47;100259.63;;;;-52
2021/08/02 16:52:53;;;;;;;2.83;1.80;;;;;;;22.26;69.49;100263.39;;;;-55
2021/08/02 16:55:53;;;;;;;2.65;1.71;;;;;;;22.27;69.49;100262.82;;;;-51
2021/08/02 16:58:54;;;;;;;3.10;1.90;;;;;;;22.26;69.24;100263.06;;;;-50